sensor_id;sensor_type;location;lat;lon;timestamp;P1;durP1;ratioP1;P2;durP2;ratioP2
11642;SDS011;5877;50.930;6.918;2023-02-13T05:09:59;12.00;;;10.53;;
11642;SDS011;5877;50.930;6.918;2023-02-13T05:14:51;14.20;;;11.50;;
11642;SDS011;5877;50.930;6.918;2023-02-13T05:19:42;16.00;;;10.90;;
11642;SDS011;5877;50.930;6.918;2023-02-13T05:24:34;13.47;;;11.13;;
11642;SDS011;5877;50.930;6.918;2023-02-13T05:29:26;13.80;;;11.67;;
11642;SDS011;5877;50.930;6.918;2023-02-13T05:34:18;15.03;;;11.60;;
11642;SDS011;5877;50.930;6.918;2023-02-13T05:39:11;14.63;;;10.83;;
11642;SDS011;5877;50.930;6.918;2023-02-13T05:44:04;12.17;;;10.57;;
11642;SDS011;5877;50.930;6.918;2023-02-13T05:48:55;13.13;;;10.90;;
11642;SDS011;5877;50.930;6.918;2023-02-13T05:53:47;13.97;;;10.90;;
11642;SDS011;5877;50.930;6.918;2023-02-13T05:58:39;15.43;;;11.20;;
11642;SDS011;5877;50.930;6.918;2023-02-13T06:03:31;16.63;;;11.87;;
11642;SDS011;5877;50.930;6.918;2023-02-13T06:08:23;16.03;;;12.50;;
11642;SDS011;5877;50.930;6.918;2023-02-13T06:13:15;16.30;;;11.43;;
11642;SDS011;5877;50.930;6.918;2023-02-13T06:18:08;13.63;;;10.40;;
11642;SDS011;5877;50.930;6.918;2023-02-13T06:23:00;14.97;;;11.13;;
11642;SDS011;5877;50.930;6.918;2023-02-13T06:27:52;16.73;;;11.37;;
11642;SDS011;5877;50.930;6.918;2023-02-13T06:32:47;15.87;;;11.03;;
11642;SDS011;5877;50.930;6.918;2023-02-13T06:37:39;13.77;;;11.53;;
11642;SDS011;5877;50.930;6.918;2023-02-13T06:42:34;16.13;;;11.77;;
11642;SDS011;5877;50.930;6.918;2023-02-13T06:47:25;14.00;;;11.23;;
11642;SDS011;5877;50.930;6.918;2023-02-13T06:52:18;13.17;;;10.63;;
11642;SDS011;5877;50.930;6.918;2023-02-13T06:57:10;15.13;;;10.87;;
11642;SDS011;5877;50.930;6.918;2023-02-13T07:02:01;13.67;;;10.77;;
11642;SDS011;5877;50.930;6.918;2023-02-13T07:06:54;13.10;;;10.07;;
11642;SDS011;5877;50.930;6.918;2023-02-13T07:11:47;15.07;;;10.37;;
11642;SDS011;5877;50.930;6.918;2023-02-13T07:16:39;13.47;;;10.13;;
11642;SDS011;5877;50.930;6.918;2023-02-13T07:21:30;13.93;;;10.57;;
11642;SDS011;5877;50.930;6.918;2023-02-13T07:26:22;13.67;;;10.87;;
11642;SDS011;5877;50.930;6.918;2023-02-13T07:31:14;13.30;;;10.53;;
11642;SDS011;5877;50.930;6.918;2023-02-13T07:36:06;12.47;;;10.27;;
11642;SDS011;5877;50.930;6.918;2023-02-13T07:40:59;14.53;;;10.47;;
11642;SDS011;5877;50.930;6.918;2023-02-13T07:45:51;12.20;;;9.73;;
11642;SDS011;5877;50.930;6.918;2023-02-13T07:50:46;12.53;;;9.33;;
11642;SDS011;5877;50.930;6.918;2023-02-13T07:55:37;11.87;;;9.53;;
11642;SDS011;5877;50.930;6.918;2023-02-13T08:00:29;10.87;;;8.80;;
11642;SDS011;5877;50.930;6.918;2023-02-13T08:05:21;10.17;;;8.83;;
11642;SDS011;5877;50.930;6.918;2023-02-13T08:10:13;10.63;;;9.17;;
11642;SDS011;5877;50.930;6.918;2023-02-13T08:15:24;10.93;;;8.60;;
11642;SDS011;5877;50.930;6.918;2023-02-13T08:20:16;10.23;;;8.80;;
11642;SDS011;5877;50.930;6.918;2023-02-13T08:25:08;11.63;;;8.73;;
11642;SDS011;5877;50.930;6.918;2023-02-13T08:30:00;10.37;;;8.70;;
11642;SDS011;5877;50.930;6.918;2023-02-13T08:34:53;11.27;;;8.87;;
11642;SDS011;5877;50.930;6.918;2023-02-13T08:39:45;10.83;;;9.57;;
11642;SDS011;5877;50.930;6.918;2023-02-13T08:44:37;10.73;;;9.33;;
11642;SDS011;5877;50.930;6.918;2023-02-13T08:49:31;13.20;;;9.77;;
11642;SDS011;5877;50.930;6.918;2023-02-13T08:54:23;9.70;;;8.70;;
11642;SDS011;5877;50.930;6.918;2023-02-13T08:59:15;11.97;;;9.80;;
11642;SDS011;5877;50.930;6.918;2023-02-13T09:04:06;10.70;;;9.17;;
11642;SDS011;5877;50.930;6.918;2023-02-13T09:08:58;12.40;;;9.93;;
11642;SDS011;5877;50.930;6.918;2023-02-13T09:13:53;12.37;;;9.47;;
11642;SDS011;5877;50.930;6.918;2023-02-13T09:18:46;13.10;;;9.70;;
11642;SDS011;5877;50.930;6.918;2023-02-13T09:23:39;12.17;;;10.00;;
11642;SDS011;5877;50.930;6.918;2023-02-13T09:28:32;12.93;;;10.07;;
11642;SDS011;5877;50.930;6.918;2023-02-13T09:33:25;12.23;;;9.27;;
11642;SDS011;5877;50.930;6.918;2023-02-13T09:38:17;14.37;;;9.13;;
11642;SDS011;5877;50.930;6.918;2023-02-13T09:43:13;11.93;;;9.70;;
11642;SDS011;5877;50.930;6.918;2023-02-13T09:48:14;11.63;;;9.17;;
11642;SDS011;5877;50.930;6.918;2023-02-13T09:53:19;11.80;;;9.40;;
11642;SDS011;5877;50.930;6.918;2023-02-13T10:03:32;10.00;;;8.87;;
11642;SDS011;5877;50.930;6.918;2023-02-13T10:08:48;11.63;;;8.43;;
11642;SDS011;5877;50.930;6.918;2023-02-13T10:14:34;12.37;;;8.67;;
11642;SDS011;5877;50.930;6.918;2023-02-13T10:34:52;10.57;;;8.67;;
11642;SDS011;5877;50.930;6.918;2023-02-13T10:39:49;12.13;;;8.57;;
11642;SDS011;5877;50.930;6.918;2023-02-13T10:44:48;10.70;;;8.30;;
11642;SDS011;5877;50.930;6.918;2023-02-13T10:55:19;11.70;;;8.67;;
11642;SDS011;5877;50.930;6.918;2023-02-13T11:00:40;8.77;;;7.07;;
11642;SDS011;5877;50.930;6.918;2023-02-13T11:05:38;8.67;;;6.97;;
11642;SDS011;5877;50.930;6.918;2023-02-13T11:10:31;9.27;;;7.17;;
11642;SDS011;5877;50.930;6.918;2023-02-13T11:15:24;10.10;;;6.77;;
11642;SDS011;5877;50.930;6.918;2023-02-13T11:25:19;9.60;;;7.27;;
11642;SDS011;5877;50.930;6.918;2023-02-13T11:35:47;7.80;;;5.83;;
11642;SDS011;5877;50.930;6.918;2023-02-13T11:40:32;8.90;;;6.47;;
11642;SDS011;5877;50.930;6.918;2023-02-13T11:45:24;7.40;;;5.53;;
11642;SDS011;5877;50.930;6.918;2023-02-13T11:50:34;7.50;;;6.23;;
11642;SDS011;5877;50.930;6.918;2023-02-13T11:55:32;7.20;;;5.60;;
11642;SDS011;5877;50.930;6.918;2023-02-13T12:00:34;7.90;;;6.03;;
11642;SDS011;5877;50.930;6.918;2023-02-13T12:05:30;7.23;;;5.73;;
11642;SDS011;5877;50.930;6.918;2023-02-13T12:10:28;9.60;;;6.00;;
11642;SDS011;5877;50.930;6.918;2023-02-13T12:15:24;8.97;;;5.27;;
11642;SDS011;5877;50.930;6.918;2023-02-13T12:20:18;10.93;;;5.80;;
11642;SDS011;5877;50.930;6.918;2023-02-13T12:30:43;5.40;;;4.87;;
11642;SDS011;5877;50.930;6.918;2023-02-13T12:36:08;7.10;;;4.67;;
11642;SDS011;5877;50.930;6.918;2023-02-13T12:41:15;6.27;;;4.60;;
11642;SDS011;5877;50.930;6.918;2023-02-13T13:06:51;6.80;;;3.77;;
11642;SDS011;5877;50.930;6.918;2023-02-13T13:22:24;6.57;;;3.67;;
11642;SDS011;5877;50.930;6.918;2023-02-13T13:27:22;4.67;;;3.53;;
11642;SDS011;5877;50.930;6.918;2023-02-13T13:32:18;3.77;;;2.80;;
11642;SDS011;5877;50.930;6.918;2023-02-13T13:37:14;3.63;;;2.60;;
11642;SDS011;5877;50.930;6.918;2023-02-13T13:42:19;4.03;;;3.00;;
11642;SDS011;5877;50.930;6.918;2023-02-13T13:52:19;3.70;;;2.30;;
11642;SDS011;5877;50.930;6.918;2023-02-13T13:57:20;3.23;;;2.60;;
11642;SDS011;5877;50.930;6.918;2023-02-13T14:07:13;2.67;;;2.10;;
11642;SDS011;5877;50.930;6.918;2023-02-13T14:22:36;3.23;;;2.10;;
11642;SDS011;5877;50.930;6.918;2023-02-13T14:27:32;3.43;;;2.43;;
11642;SDS011;5877;50.930;6.918;2023-02-13T14:32:34;3.03;;;2.20;;
11642;SDS011;5877;50.930;6.918;2023-02-13T14:37:35;2.57;;;1.80;;
11642;SDS011;5877;50.930;6.918;2023-02-13T14:42:30;2.03;;;1.70;;
11642;SDS011;5877;50.930;6.918;2023-02-13T14:47:29;3.20;;;1.60;;
11642;SDS011;5877;50.930;6.918;2023-02-13T14:52:31;2.40;;;1.70;;
11642;SDS011;5877;50.930;6.918;2023-02-13T14:57:36;2.33;;;1.77;;
11642;SDS011;5877;50.930;6.918;2023-02-13T15:02:39;2.97;;;1.77;;
11642;SDS011;5877;50.930;6.918;2023-02-13T15:07:35;3.63;;;1.83;;
11642;SDS011;5877;50.930;6.918;2023-02-13T15:12:35;2.10;;;1.50;;
11642;SDS011;5877;50.930;6.918;2023-02-13T15:17:28;3.00;;;1.80;;
11642;SDS011;5877;50.930;6.918;2023-02-13T15:22:32;2.47;;;1.67;;
11642;SDS011;5877;50.930;6.918;2023-02-13T15:27:30;2.63;;;1.80;;
11642;SDS011;5877;50.930;6.918;2023-02-13T15:32:25;3.20;;;1.80;;
11642;SDS011;5877;50.930;6.918;2023-02-13T15:37:29;1.63;;;1.47;;
11642;SDS011;5877;50.930;6.918;2023-02-13T15:42:21;3.37;;;1.90;;
11642;SDS011;5877;50.930;6.918;2023-02-13T15:47:14;4.47;;;2.70;;
11642;SDS011;5877;50.930;6.918;2023-02-13T15:52:17;3.67;;;1.50;;
11642;SDS011;5877;50.930;6.918;2023-02-13T15:57:15;3.27;;;1.63;;
11642;SDS011;5877;50.930;6.918;2023-02-13T16:02:10;2.43;;;2.00;;
11642;SDS011;5877;50.930;6.918;2023-02-13T16:07:10;2.77;;;1.83;;
11642;SDS011;5877;50.930;6.918;2023-02-13T16:16:56;5.67;;;2.17;;
11642;SDS011;5877;50.930;6.918;2023-02-13T16:21:51;3.67;;;2.63;;
11642;SDS011;5877;50.930;6.918;2023-02-13T16:26:44;3.43;;;2.63;;
11642;SDS011;5877;50.930;6.918;2023-02-13T16:31:37;5.93;;;2.60;;
11642;SDS011;5877;50.930;6.918;2023-02-13T16:36:30;6.83;;;3.00;;
11642;SDS011;5877;50.930;6.918;2023-02-13T16:46:23;4.00;;;2.80;;
11642;SDS011;5877;50.930;6.918;2023-02-13T16:51:17;2.70;;;2.47;;
11642;SDS011;5877;50.930;6.918;2023-02-13T16:56:24;6.50;;;2.83;;
11642;SDS011;5877;50.930;6.918;2023-02-13T17:01:16;3.27;;;2.70;;
11642;SDS011;5877;50.930;6.918;2023-02-13T17:06:08;7.33;;;3.67;;
11642;SDS011;5877;50.930;6.918;2023-02-13T17:11:02;7.13;;;3.30;;
11642;SDS011;5877;50.930;6.918;2023-02-13T17:15:55;4.07;;;3.47;;
11642;SDS011;5877;50.930;6.918;2023-02-13T17:20:48;3.63;;;2.83;;
11642;SDS011;5877;50.930;6.918;2023-02-13T17:25:40;5.33;;;3.50;;
11642;SDS011;5877;50.930;6.918;2023-02-13T17:30:33;4.20;;;3.20;;
11642;SDS011;5877;50.930;6.918;2023-02-13T17:35:25;5.33;;;3.50;;
11642;SDS011;5877;50.930;6.918;2023-02-13T17:40:18;4.37;;;3.33;;
11642;SDS011;5877;50.930;6.918;2023-02-13T17:45:16;4.63;;;3.37;;
11642;SDS011;5877;50.930;6.918;2023-02-13T17:50:09;4.90;;;4.07;;
11642;SDS011;5877;50.930;6.918;2023-02-13T17:55:02;6.07;;;4.17;;
11642;SDS011;5877;50.930;6.918;2023-02-13T17:59:54;7.23;;;4.83;;
11642;SDS011;5877;50.930;6.918;2023-02-13T18:04:47;6.30;;;4.43;;
11642;SDS011;5877;50.930;6.918;2023-02-13T18:09:40;6.87;;;4.13;;
11642;SDS011;5877;50.930;6.918;2023-02-13T18:14:32;6.50;;;4.27;;
11642;SDS011;5877;50.930;6.918;2023-02-13T18:19:25;5.47;;;4.57;;
11642;SDS011;5877;50.930;6.918;2023-02-13T18:24:17;5.67;;;4.87;;
11642;SDS011;5877;50.930;6.918;2023-02-13T18:29:09;5.57;;;4.90;;
11642;SDS011;5877;50.930;6.918;2023-02-13T18:34:01;5.37;;;4.30;;
11642;SDS011;5877;50.930;6.918;2023-02-13T18:38:53;6.53;;;4.90;;
11642;SDS011;5877;50.930;6.918;2023-02-13T18:43:44;6.63;;;4.83;;
11642;SDS011;5877;50.930;6.918;2023-02-13T18:48:36;6.57;;;4.47;;
11642;SDS011;5877;50.930;6.918;2023-02-13T18:53:28;6.13;;;4.23;;
11642;SDS011;5877;50.930;6.918;2023-02-13T18:58:20;4.93;;;3.67;;
11642;SDS011;5877;50.930;6.918;2023-02-13T19:03:11;5.10;;;3.80;;
11642;SDS011;5877;50.930;6.918;2023-02-13T19:08:03;6.03;;;4.23;;
11642;SDS011;5877;50.930;6.918;2023-02-13T19:12:56;4.83;;;3.90;;
11642;SDS011;5877;50.930;6.918;2023-02-13T19:17:47;6.27;;;3.87;;
11642;SDS011;5877;50.930;6.918;2023-02-13T19:22:39;6.73;;;3.67;;
11642;SDS011;5877;50.930;6.918;2023-02-13T19:27:31;4.97;;;4.33;;
11642;SDS011;5877;50.930;6.918;2023-02-13T19:32:23;5.33;;;3.97;;
11642;SDS011;5877;50.930;6.918;2023-02-13T19:37:14;4.87;;;4.33;;
11642;SDS011;5877;50.930;6.918;2023-02-13T19:42:06;5.07;;;4.27;;
11642;SDS011;5877;50.930;6.918;2023-02-13T19:46:58;5.77;;;4.70;;
11642;SDS011;5877;50.930;6.918;2023-02-13T19:51:49;7.00;;;5.23;;
11642;SDS011;5877;50.930;6.918;2023-02-13T19:56:41;6.37;;;4.33;;
11642;SDS011;5877;50.930;6.918;2023-02-13T20:01:34;6.03;;;4.87;;
11642;SDS011;5877;50.930;6.918;2023-02-13T20:06:27;7.17;;;4.70;;
11642;SDS011;5877;50.930;6.918;2023-02-13T20:11:22;5.60;;;4.37;;
11642;SDS011;5877;50.930;6.918;2023-02-13T20:16:14;7.67;;;4.87;;
11642;SDS011;5877;50.930;6.918;2023-02-13T20:21:08;5.20;;;4.37;;
11642;SDS011;5877;50.930;6.918;2023-02-13T20:26:06;8.17;;;4.87;;
11642;SDS011;5877;50.930;6.918;2023-02-13T20:30:59;5.77;;;4.20;;
11642;SDS011;5877;50.930;6.918;2023-02-13T20:35:51;5.20;;;4.40;;
11642;SDS011;5877;50.930;6.918;2023-02-13T20:40:43;8.17;;;4.87;;
11642;SDS011;5877;50.930;6.918;2023-02-13T20:45:35;6.90;;;4.73;;
11642;SDS011;5877;50.930;6.918;2023-02-13T20:50:27;6.80;;;5.17;;
11642;SDS011;5877;50.930;6.918;2023-02-13T20:55:19;8.03;;;5.23;;
11642;SDS011;5877;50.930;6.918;2023-02-13T21:00:10;8.70;;;5.27;;
11642;SDS011;5877;50.930;6.918;2023-02-13T21:05:03;6.53;;;5.23;;
11642;SDS011;5877;50.930;6.918;2023-02-13T21:09:56;9.03;;;5.83;;
11642;SDS011;5877;50.930;6.918;2023-02-13T21:14:47;6.13;;;5.17;;
11642;SDS011;5877;50.930;6.918;2023-02-13T21:19:39;8.23;;;5.67;;
11642;SDS011;5877;50.930;6.918;2023-02-13T21:24:31;7.60;;;5.10;;
11642;SDS011;5877;50.930;6.918;2023-02-13T21:29:23;8.13;;;5.40;;
11642;SDS011;5877;50.930;6.918;2023-02-13T21:34:15;8.60;;;4.97;;
11642;SDS011;5877;50.930;6.918;2023-02-13T21:39:08;8.93;;;5.80;;
11642;SDS011;5877;50.930;6.918;2023-02-13T21:44:01;10.13;;;6.67;;
11642;SDS011;5877;50.930;6.918;2023-02-13T21:48:54;9.20;;;6.70;;
11642;SDS011;5877;50.930;6.918;2023-02-13T21:53:47;9.00;;;6.10;;
11642;SDS011;5877;50.930;6.918;2023-02-13T21:58:40;9.40;;;6.50;;
11642;SDS011;5877;50.930;6.918;2023-02-13T22:03:33;7.77;;;5.77;;
11642;SDS011;5877;50.930;6.918;2023-02-13T22:08:25;10.67;;;6.10;;
11642;SDS011;5877;50.930;6.918;2023-02-13T22:13:17;8.97;;;6.37;;
11642;SDS011;5877;50.930;6.918;2023-02-13T22:18:09;8.13;;;6.27;;
11642;SDS011;5877;50.930;6.918;2023-02-13T22:23:01;8.70;;;6.20;;
11642;SDS011;5877;50.930;6.918;2023-02-13T22:27:52;7.43;;;6.10;;
11642;SDS011;5877;50.930;6.918;2023-02-13T22:32:44;9.83;;;6.83;;
11642;SDS011;5877;50.930;6.918;2023-02-13T22:37:36;9.60;;;6.43;;
11642;SDS011;5877;50.930;6.918;2023-02-13T22:42:28;9.33;;;7.20;;
11642;SDS011;5877;50.930;6.918;2023-02-13T22:47:20;9.03;;;6.53;;
11642;SDS011;5877;50.930;6.918;2023-02-13T22:52:13;8.17;;;6.53;;
11642;SDS011;5877;50.930;6.918;2023-02-13T22:57:04;8.87;;;6.37;;
11642;SDS011;5877;50.930;6.918;2023-02-13T23:01:56;8.77;;;6.87;;
11642;SDS011;5877;50.930;6.918;2023-02-13T23:06:48;7.37;;;6.17;;
11642;SDS011;5877;50.930;6.918;2023-02-13T23:11:40;7.80;;;6.07;;
11642;SDS011;5877;50.930;6.918;2023-02-13T23:16:50;7.50;;;6.17;;
11642;SDS011;5877;50.930;6.918;2023-02-13T23:22:00;9.63;;;6.17;;
11642;SDS011;5877;50.930;6.918;2023-02-13T23:26:52;8.53;;;6.43;;
11642;SDS011;5877;50.930;6.918;2023-02-13T23:31:44;8.77;;;6.50;;
11642;SDS011;5877;50.930;6.918;2023-02-13T23:36:36;6.73;;;6.03;;
11642;SDS011;5877;50.930;6.918;2023-02-13T23:41:28;10.57;;;6.87;;
11642;SDS011;5877;50.930;6.918;2023-02-13T23:46:19;10.37;;;5.87;;
11642;SDS011;5877;50.930;6.918;2023-02-13T23:51:11;6.70;;;5.30;;
11642;SDS011;5877;50.930;6.918;2023-02-13T23:56:03;7.40;;;5.23;;
